sensor_id;sensor_type;location;lat;lon;timestamp;P1;durP1;ratioP1;P2;durP2;ratioP2
3949;SDS011;53057;50.988;6.314;2023-04-25T00:01:00;20.97;;;7.30;;
3949;SDS011;53057;50.988;6.314;2023-04-25T00:03:28;15.63;;;7.73;;
3949;SDS011;53057;50.988;6.314;2023-04-25T00:05:56;18.30;;;6.63;;
3949;SDS011;53057;50.988;6.314;2023-04-25T00:08:23;15.77;;;6.37;;
3949;SDS011;53057;50.988;6.314;2023-04-25T00:10:49;22.43;;;6.57;;
3949;SDS011;53057;50.988;6.314;2023-04-25T00:13:16;32.53;;;8.17;;
3949;SDS011;53057;50.988;6.314;2023-04-25T00:15:43;13.43;;;7.03;;
3949;SDS011;53057;50.988;6.314;2023-04-25T00:18:10;25.57;;;7.37;;
3949;SDS011;53057;50.988;6.314;2023-04-25T00:20:37;21.60;;;7.47;;
3949;SDS011;53057;50.988;6.314;2023-04-25T00:23:04;17.50;;;7.10;;
3949;SDS011;53057;50.988;6.314;2023-04-25T00:25:31;19.40;;;7.47;;
3949;SDS011;53057;50.988;6.314;2023-04-25T00:27:57;28.17;;;7.23;;
3949;SDS011;53057;50.988;6.314;2023-04-25T00:30:24;31.03;;;7.93;;
3949;SDS011;53057;50.988;6.314;2023-04-25T00:32:50;25.80;;;8.77;;
3949;SDS011;53057;50.988;6.314;2023-04-25T00:35:17;29.63;;;10.60;;
3949;SDS011;53057;50.988;6.314;2023-04-25T00:37:43;15.80;;;7.10;;
3949;SDS011;53057;50.988;6.314;2023-04-25T00:40:10;15.63;;;7.30;;
3949;SDS011;53057;50.988;6.314;2023-04-25T00:42:37;19.30;;;7.27;;
3949;SDS011;53057;50.988;6.314;2023-04-25T00:45:05;26.27;;;8.27;;
3949;SDS011;53057;50.988;6.314;2023-04-25T00:47:31;24.60;;;9.00;;
3949;SDS011;53057;50.988;6.314;2023-04-25T00:49:58;18.93;;;7.20;;
3949;SDS011;53057;50.988;6.314;2023-04-25T00:52:25;22.90;;;9.00;;
3949;SDS011;53057;50.988;6.314;2023-04-25T00:54:52;28.27;;;9.13;;
3949;SDS011;53057;50.988;6.314;2023-04-25T00:57:19;26.73;;;9.70;;
3949;SDS011;53057;50.988;6.314;2023-04-25T00:59:45;22.13;;;9.43;;
3949;SDS011;53057;50.988;6.314;2023-04-25T01:02:13;26.33;;;12.13;;
3949;SDS011;53057;50.988;6.314;2023-04-25T01:04:40;28.93;;;12.60;;
3949;SDS011;53057;50.988;6.314;2023-04-25T01:07:06;33.23;;;10.40;;
3949;SDS011;53057;50.988;6.314;2023-04-25T01:09:33;24.30;;;12.00;;
3949;SDS011;53057;50.988;6.314;2023-04-25T01:12:00;28.67;;;9.80;;
3949;SDS011;53057;50.988;6.314;2023-04-25T01:14:27;21.03;;;8.77;;
3949;SDS011;53057;50.988;6.314;2023-04-25T01:16:54;26.50;;;8.83;;
3949;SDS011;53057;50.988;6.314;2023-04-25T01:19:21;22.90;;;9.10;;
3949;SDS011;53057;50.988;6.314;2023-04-25T01:21:47;20.10;;;9.43;;
3949;SDS011;53057;50.988;6.314;2023-04-25T01:24:14;32.77;;;13.03;;
3949;SDS011;53057;50.988;6.314;2023-04-25T01:26:41;23.87;;;9.30;;
3949;SDS011;53057;50.988;6.314;2023-04-25T01:29:11;29.43;;;10.47;;
3949;SDS011;53057;50.988;6.314;2023-04-25T01:31:38;28.23;;;7.77;;
3949;SDS011;53057;50.988;6.314;2023-04-25T01:34:04;18.97;;;7.60;;
3949;SDS011;53057;50.988;6.314;2023-04-25T01:36:31;33.93;;;10.50;;
3949;SDS011;53057;50.988;6.314;2023-04-25T01:38:59;24.80;;;12.20;;
3949;SDS011;53057;50.988;6.314;2023-04-25T01:41:27;24.50;;;11.37;;
3949;SDS011;53057;50.988;6.314;2023-04-25T01:43:54;35.30;;;13.40;;
3949;SDS011;53057;50.988;6.314;2023-04-25T01:46:21;21.53;;;9.70;;
3949;SDS011;53057;50.988;6.314;2023-04-25T01:48:48;18.53;;;9.40;;
3949;SDS011;53057;50.988;6.314;2023-04-25T01:51:14;18.00;;;8.10;;
3949;SDS011;53057;50.988;6.314;2023-04-25T01:53:41;27.20;;;7.87;;
3949;SDS011;53057;50.988;6.314;2023-04-25T01:56:08;17.93;;;8.10;;
3949;SDS011;53057;50.988;6.314;2023-04-25T01:58:35;22.67;;;7.80;;
3949;SDS011;53057;50.988;6.314;2023-04-25T02:01:02;25.83;;;9.53;;
3949;SDS011;53057;50.988;6.314;2023-04-25T02:03:36;27.10;;;8.77;;
3949;SDS011;53057;50.988;6.314;2023-04-25T02:06:06;17.27;;;9.50;;
3949;SDS011;53057;50.988;6.314;2023-04-25T02:08:36;21.83;;;7.40;;
3949;SDS011;53057;50.988;6.314;2023-04-25T02:11:04;15.20;;;6.63;;
3949;SDS011;53057;50.988;6.314;2023-04-25T02:13:38;24.20;;;7.20;;
3949;SDS011;53057;50.988;6.314;2023-04-25T02:16:33;26.00;;;8.50;;
3949;SDS011;53057;50.988;6.314;2023-04-25T02:19:02;23.13;;;8.53;;
3949;SDS011;53057;50.988;6.314;2023-04-25T02:21:29;30.00;;;8.87;;
3949;SDS011;53057;50.988;6.314;2023-04-25T02:23:57;29.53;;;9.30;;
3949;SDS011;53057;50.988;6.314;2023-04-25T02:26:24;21.70;;;10.03;;
3949;SDS011;53057;50.988;6.314;2023-04-25T02:28:50;26.60;;;8.77;;
3949;SDS011;53057;50.988;6.314;2023-04-25T02:31:18;24.70;;;9.23;;
3949;SDS011;53057;50.988;6.314;2023-04-25T02:33:45;28.17;;;10.00;;
3949;SDS011;53057;50.988;6.314;2023-04-25T02:36:11;29.53;;;10.10;;
3949;SDS011;53057;50.988;6.314;2023-04-25T02:38:38;21.50;;;8.70;;
3949;SDS011;53057;50.988;6.314;2023-04-25T02:41:05;15.97;;;8.47;;
3949;SDS011;53057;50.988;6.314;2023-04-25T02:43:31;20.67;;;8.03;;
3949;SDS011;53057;50.988;6.314;2023-04-25T02:45:58;21.23;;;7.97;;
3949;SDS011;53057;50.988;6.314;2023-04-25T02:48:24;15.50;;;7.50;;
3949;SDS011;53057;50.988;6.314;2023-04-25T02:50:51;20.57;;;7.70;;
3949;SDS011;53057;50.988;6.314;2023-04-25T02:53:18;20.60;;;9.40;;
3949;SDS011;53057;50.988;6.314;2023-04-25T02:55:48;23.40;;;8.47;;
3949;SDS011;53057;50.988;6.314;2023-04-25T02:58:15;25.27;;;9.40;;
3949;SDS011;53057;50.988;6.314;2023-04-25T03:00:48;20.10;;;8.50;;
3949;SDS011;53057;50.988;6.314;2023-04-25T03:03:16;33.07;;;9.73;;
3949;SDS011;53057;50.988;6.314;2023-04-25T03:05:44;24.57;;;10.00;;
3949;SDS011;53057;50.988;6.314;2023-04-25T03:08:13;22.87;;;9.50;;
3949;SDS011;53057;50.988;6.314;2023-04-25T03:10:40;34.50;;;8.70;;
3949;SDS011;53057;50.988;6.314;2023-04-25T03:13:09;24.50;;;8.90;;
3949;SDS011;53057;50.988;6.314;2023-04-25T03:15:36;22.70;;;7.83;;
3949;SDS011;53057;50.988;6.314;2023-04-25T03:18:03;22.40;;;10.10;;
3949;SDS011;53057;50.988;6.314;2023-04-25T03:20:30;21.10;;;8.47;;
3949;SDS011;53057;50.988;6.314;2023-04-25T03:22:56;32.87;;;8.70;;
3949;SDS011;53057;50.988;6.314;2023-04-25T03:25:23;26.60;;;9.20;;
3949;SDS011;53057;50.988;6.314;2023-04-25T03:27:49;21.47;;;9.60;;
3949;SDS011;53057;50.988;6.314;2023-04-25T03:30:16;31.73;;;7.80;;
3949;SDS011;53057;50.988;6.314;2023-04-25T03:32:43;28.07;;;8.97;;
3949;SDS011;53057;50.988;6.314;2023-04-25T03:35:14;23.00;;;9.10;;
3949;SDS011;53057;50.988;6.314;2023-04-25T03:37:41;27.17;;;9.90;;
3949;SDS011;53057;50.988;6.314;2023-04-25T03:40:15;23.77;;;8.17;;
3949;SDS011;53057;50.988;6.314;2023-04-25T03:43:05;22.10;;;8.47;;
3949;SDS011;53057;50.988;6.314;2023-04-25T03:45:32;23.47;;;9.80;;
3949;SDS011;53057;50.988;6.314;2023-04-25T03:47:59;23.93;;;8.90;;
3949;SDS011;53057;50.988;6.314;2023-04-25T03:50:28;24.43;;;12.00;;
3949;SDS011;53057;50.988;6.314;2023-04-25T03:52:54;34.57;;;12.10;;
3949;SDS011;53057;50.988;6.314;2023-04-25T03:55:22;26.50;;;12.33;;
3949;SDS011;53057;50.988;6.314;2023-04-25T03:57:49;31.47;;;12.80;;
3949;SDS011;53057;50.988;6.314;2023-04-25T04:00:16;28.73;;;13.87;;
3949;SDS011;53057;50.988;6.314;2023-04-25T04:02:42;33.20;;;13.07;;
3949;SDS011;53057;50.988;6.314;2023-04-25T04:05:11;28.33;;;14.27;;
3949;SDS011;53057;50.988;6.314;2023-04-25T04:07:45;28.63;;;12.80;;
3949;SDS011;53057;50.988;6.314;2023-04-25T04:10:12;25.47;;;12.77;;
3949;SDS011;53057;50.988;6.314;2023-04-25T04:12:39;26.10;;;12.87;;
3949;SDS011;53057;50.988;6.314;2023-04-25T04:15:06;30.13;;;13.47;;
3949;SDS011;53057;50.988;6.314;2023-04-25T04:17:33;23.77;;;11.60;;
3949;SDS011;53057;50.988;6.314;2023-04-25T04:20:01;27.57;;;11.80;;
3949;SDS011;53057;50.988;6.314;2023-04-25T04:22:30;38.30;;;12.73;;
3949;SDS011;53057;50.988;6.314;2023-04-25T04:25:00;21.70;;;11.63;;
3949;SDS011;53057;50.988;6.314;2023-04-25T04:27:45;23.17;;;12.27;;
3949;SDS011;53057;50.988;6.314;2023-04-25T04:30:38;30.37;;;11.23;;
3949;SDS011;53057;50.988;6.314;2023-04-25T04:33:07;26.83;;;11.17;;
3949;SDS011;53057;50.988;6.314;2023-04-25T04:35:34;26.73;;;10.30;;
3949;SDS011;53057;50.988;6.314;2023-04-25T04:38:01;23.40;;;9.70;;
3949;SDS011;53057;50.988;6.314;2023-04-25T04:40:32;29.10;;;9.20;;
3949;SDS011;53057;50.988;6.314;2023-04-25T04:43:07;16.73;;;7.90;;
3949;SDS011;53057;50.988;6.314;2023-04-25T04:45:51;20.10;;;8.40;;
3949;SDS011;53057;50.988;6.314;2023-04-25T04:48:38;21.03;;;7.93;;
3949;SDS011;53057;50.988;6.314;2023-04-25T04:51:29;27.50;;;8.67;;
3949;SDS011;53057;50.988;6.314;2023-04-25T04:54:17;21.23;;;8.37;;
3949;SDS011;53057;50.988;6.314;2023-04-25T04:56:53;23.00;;;10.37;;
3949;SDS011;53057;50.988;6.314;2023-04-25T04:59:22;29.83;;;8.10;;
3949;SDS011;53057;50.988;6.314;2023-04-25T05:02:05;20.50;;;8.17;;
3949;SDS011;53057;50.988;6.314;2023-04-25T05:04:56;20.13;;;8.93;;
3949;SDS011;53057;50.988;6.314;2023-04-25T05:07:34;28.10;;;10.30;;
3949;SDS011;53057;50.988;6.314;2023-04-25T05:10:08;22.60;;;9.50;;
3949;SDS011;53057;50.988;6.314;2023-04-25T05:12:53;25.93;;;8.20;;
3949;SDS011;53057;50.988;6.314;2023-04-25T05:15:56;20.73;;;7.83;;
3949;SDS011;53057;50.988;6.314;2023-04-25T05:18:34;30.63;;;8.20;;
3949;SDS011;53057;50.988;6.314;2023-04-25T05:21:19;21.53;;;7.93;;
3949;SDS011;53057;50.988;6.314;2023-04-25T05:23:57;18.13;;;7.97;;
3949;SDS011;53057;50.988;6.314;2023-04-25T05:26:44;21.77;;;9.53;;
3949;SDS011;53057;50.988;6.314;2023-04-25T05:29:21;22.23;;;8.30;;
3949;SDS011;53057;50.988;6.314;2023-04-25T05:32:03;22.10;;;9.23;;
3949;SDS011;53057;50.988;6.314;2023-04-25T05:34:29;19.70;;;7.20;;
3949;SDS011;53057;50.988;6.314;2023-04-25T05:36:59;21.13;;;9.43;;
3949;SDS011;53057;50.988;6.314;2023-04-25T05:39:26;18.67;;;8.90;;
3949;SDS011;53057;50.988;6.314;2023-04-25T05:42:12;29.33;;;7.60;;
3949;SDS011;53057;50.988;6.314;2023-04-25T05:45:02;18.60;;;7.10;;
3949;SDS011;53057;50.988;6.314;2023-04-25T05:47:34;12.83;;;7.40;;
3949;SDS011;53057;50.988;6.314;2023-04-25T05:50:09;17.03;;;7.43;;
3949;SDS011;53057;50.988;6.314;2023-04-25T05:52:44;11.13;;;6.47;;
3949;SDS011;53057;50.988;6.314;2023-04-25T05:55:24;23.63;;;7.47;;
3949;SDS011;53057;50.988;6.314;2023-04-25T05:57:51;21.73;;;7.37;;
3949;SDS011;53057;50.988;6.314;2023-04-25T06:00:18;24.43;;;7.63;;
3949;SDS011;53057;50.988;6.314;2023-04-25T06:02:48;28.87;;;6.63;;
3949;SDS011;53057;50.988;6.314;2023-04-25T06:05:15;14.70;;;6.57;;
3949;SDS011;53057;50.988;6.314;2023-04-25T06:07:42;18.83;;;11.93;;
3949;SDS011;53057;50.988;6.314;2023-04-25T06:10:08;25.13;;;7.03;;
3949;SDS011;53057;50.988;6.314;2023-04-25T06:12:36;20.93;;;6.10;;
3949;SDS011;53057;50.988;6.314;2023-04-25T06:15:05;15.23;;;7.53;;
3949;SDS011;53057;50.988;6.314;2023-04-25T06:17:52;13.27;;;6.50;;
3949;SDS011;53057;50.988;6.314;2023-04-25T06:20:18;28.13;;;6.07;;
3949;SDS011;53057;50.988;6.314;2023-04-25T06:22:50;19.83;;;5.80;;
3949;SDS011;53057;50.988;6.314;2023-04-25T06:25:16;15.37;;;5.77;;
3949;SDS011;53057;50.988;6.314;2023-04-25T06:27:43;31.93;;;6.70;;
3949;SDS011;53057;50.988;6.314;2023-04-25T06:30:12;20.53;;;6.90;;
3949;SDS011;53057;50.988;6.314;2023-04-25T06:32:39;19.10;;;6.30;;
3949;SDS011;53057;50.988;6.314;2023-04-25T06:35:05;21.23;;;6.20;;
3949;SDS011;53057;50.988;6.314;2023-04-25T06:37:32;22.00;;;6.50;;
3949;SDS011;53057;50.988;6.314;2023-04-25T06:40:00;23.27;;;5.80;;
3949;SDS011;53057;50.988;6.314;2023-04-25T06:42:28;17.03;;;6.43;;
3949;SDS011;53057;50.988;6.314;2023-04-25T06:44:58;12.37;;;5.90;;
3949;SDS011;53057;50.988;6.314;2023-04-25T06:47:27;11.77;;;6.70;;
3949;SDS011;53057;50.988;6.314;2023-04-25T06:49:53;20.67;;;5.83;;
3949;SDS011;53057;50.988;6.314;2023-04-25T06:52:20;10.57;;;4.00;;
3949;SDS011;53057;50.988;6.314;2023-04-25T06:54:49;19.67;;;4.80;;
3949;SDS011;53057;50.988;6.314;2023-04-25T06:57:30;9.27;;;4.50;;
3949;SDS011;53057;50.988;6.314;2023-04-25T07:00:08;15.50;;;4.30;;
3949;SDS011;53057;50.988;6.314;2023-04-25T07:02:36;18.50;;;5.40;;
3949;SDS011;53057;50.988;6.314;2023-04-25T07:05:03;21.33;;;6.70;;
3949;SDS011;53057;50.988;6.314;2023-04-25T07:07:30;17.03;;;5.60;;
3949;SDS011;53057;50.988;6.314;2023-04-25T07:09:57;26.73;;;6.40;;
3949;SDS011;53057;50.988;6.314;2023-04-25T07:12:25;16.33;;;6.00;;
3949;SDS011;53057;50.988;6.314;2023-04-25T07:14:52;29.03;;;7.77;;
3949;SDS011;53057;50.988;6.314;2023-04-25T07:17:18;14.90;;;5.00;;
3949;SDS011;53057;50.988;6.314;2023-04-25T07:19:45;21.30;;;5.00;;
3949;SDS011;53057;50.988;6.314;2023-04-25T07:22:11;14.67;;;4.53;;
3949;SDS011;53057;50.988;6.314;2023-04-25T07:24:40;17.73;;;4.67;;
3949;SDS011;53057;50.988;6.314;2023-04-25T07:27:09;20.47;;;6.07;;
3949;SDS011;53057;50.988;6.314;2023-04-25T07:29:59;14.50;;;6.37;;
3949;SDS011;53057;50.988;6.314;2023-04-25T07:32:26;12.53;;;5.37;;
3949;SDS011;53057;50.988;6.314;2023-04-25T07:34:53;23.70;;;5.13;;
3949;SDS011;53057;50.988;6.314;2023-04-25T07:37:19;24.27;;;5.37;;
3949;SDS011;53057;50.988;6.314;2023-04-25T07:39:59;19.40;;;5.37;;
3949;SDS011;53057;50.988;6.314;2023-04-25T07:42:26;12.20;;;5.03;;
3949;SDS011;53057;50.988;6.314;2023-04-25T07:44:53;12.53;;;5.07;;
3949;SDS011;53057;50.988;6.314;2023-04-25T07:47:19;22.50;;;5.70;;
3949;SDS011;53057;50.988;6.314;2023-04-25T07:49:46;10.80;;;4.10;;
3949;SDS011;53057;50.988;6.314;2023-04-25T07:52:13;12.23;;;4.30;;
3949;SDS011;53057;50.988;6.314;2023-04-25T07:54:46;11.63;;;4.40;;
3949;SDS011;53057;50.988;6.314;2023-04-25T07:57:17;21.10;;;4.47;;
3949;SDS011;53057;50.988;6.314;2023-04-25T07:59:46;9.93;;;3.13;;
3949;SDS011;53057;50.988;6.314;2023-04-25T08:02:13;10.93;;;3.30;;
3949;SDS011;53057;50.988;6.314;2023-04-25T08:04:39;10.93;;;3.30;;
3949;SDS011;53057;50.988;6.314;2023-04-25T08:07:08;7.60;;;3.17;;
3949;SDS011;53057;50.988;6.314;2023-04-25T08:09:44;7.20;;;2.80;;
3949;SDS011;53057;50.988;6.314;2023-04-25T08:12:19;9.00;;;3.00;;
3949;SDS011;53057;50.988;6.314;2023-04-25T08:14:48;8.63;;;2.97;;
3949;SDS011;53057;50.988;6.314;2023-04-25T08:17:15;11.93;;;2.67;;
3949;SDS011;53057;50.988;6.314;2023-04-25T08:19:41;8.17;;;3.00;;
3949;SDS011;53057;50.988;6.314;2023-04-25T08:22:15;14.33;;;3.67;;
3949;SDS011;53057;50.988;6.314;2023-04-25T08:24:50;8.40;;;3.13;;
3949;SDS011;53057;50.988;6.314;2023-04-25T08:27:20;10.00;;;4.43;;
3949;SDS011;53057;50.988;6.314;2023-04-25T08:29:47;17.20;;;6.50;;
3949;SDS011;53057;50.988;6.314;2023-04-25T08:32:14;10.73;;;4.43;;
3949;SDS011;53057;50.988;6.314;2023-04-25T08:34:52;14.60;;;4.40;;
3949;SDS011;53057;50.988;6.314;2023-04-25T08:37:20;6.90;;;3.30;;
3949;SDS011;53057;50.988;6.314;2023-04-25T08:39:54;18.47;;;4.80;;
3949;SDS011;53057;50.988;6.314;2023-04-25T08:42:34;10.00;;;3.13;;
3949;SDS011;53057;50.988;6.314;2023-04-25T08:45:03;11.87;;;5.23;;
3949;SDS011;53057;50.988;6.314;2023-04-25T08:47:37;20.47;;;4.10;;
3949;SDS011;53057;50.988;6.314;2023-04-25T08:50:05;13.80;;;3.97;;
3949;SDS011;53057;50.988;6.314;2023-04-25T08:52:37;13.70;;;3.80;;
3949;SDS011;53057;50.988;6.314;2023-04-25T08:55:06;23.97;;;4.93;;
3949;SDS011;53057;50.988;6.314;2023-04-25T08:57:35;8.77;;;3.20;;
3949;SDS011;53057;50.988;6.314;2023-04-25T09:00:02;7.67;;;3.43;;
3949;SDS011;53057;50.988;6.314;2023-04-25T09:02:32;15.97;;;3.37;;
3949;SDS011;53057;50.988;6.314;2023-04-25T09:05:01;10.27;;;4.30;;
3949;SDS011;53057;50.988;6.314;2023-04-25T09:07:28;14.40;;;4.93;;
3949;SDS011;53057;50.988;6.314;2023-04-25T09:09:55;8.30;;;2.73;;
3949;SDS011;53057;50.988;6.314;2023-04-25T09:12:22;5.63;;;3.30;;
3949;SDS011;53057;50.988;6.314;2023-04-25T09:15:05;11.10;;;4.30;;
3949;SDS011;53057;50.988;6.314;2023-04-25T09:17:55;7.97;;;3.53;;
3949;SDS011;53057;50.988;6.314;2023-04-25T09:20:24;11.60;;;2.90;;
3949;SDS011;53057;50.988;6.314;2023-04-25T09:23:04;14.13;;;3.97;;
3949;SDS011;53057;50.988;6.314;2023-04-25T09:25:37;5.00;;;3.77;;
3949;SDS011;53057;50.988;6.314;2023-04-25T09:28:08;9.20;;;3.43;;
3949;SDS011;53057;50.988;6.314;2023-04-25T09:30:35;19.77;;;5.27;;
3949;SDS011;53057;50.988;6.314;2023-04-25T09:33:18;10.53;;;3.33;;
3949;SDS011;53057;50.988;6.314;2023-04-25T09:35:48;6.20;;;2.90;;
3949;SDS011;53057;50.988;6.314;2023-04-25T09:38:28;6.83;;;2.20;;
3949;SDS011;53057;50.988;6.314;2023-04-25T09:40:59;12.10;;;3.57;;
3949;SDS011;53057;50.988;6.314;2023-04-25T09:43:35;5.90;;;3.77;;
3949;SDS011;53057;50.988;6.314;2023-04-25T09:46:02;17.93;;;4.40;;
3949;SDS011;53057;50.988;6.314;2023-04-25T09:48:29;7.23;;;3.43;;
3949;SDS011;53057;50.988;6.314;2023-04-25T09:51:11;12.50;;;5.00;;
3949;SDS011;53057;50.988;6.314;2023-04-25T09:53:42;17.10;;;4.83;;
3949;SDS011;53057;50.988;6.314;2023-04-25T09:56:15;4.00;;;2.80;;
3949;SDS011;53057;50.988;6.314;2023-04-25T09:58:42;12.43;;;3.13;;
3949;SDS011;53057;50.988;6.314;2023-04-25T10:01:09;5.17;;;2.73;;
3949;SDS011;53057;50.988;6.314;2023-04-25T10:03:49;4.63;;;2.60;;
3949;SDS011;53057;50.988;6.314;2023-04-25T10:06:43;7.30;;;2.90;;
3949;SDS011;53057;50.988;6.314;2023-04-25T10:09:10;9.60;;;3.17;;
3949;SDS011;53057;50.988;6.314;2023-04-25T10:11:38;7.83;;;3.00;;
3949;SDS011;53057;50.988;6.314;2023-04-25T10:14:06;5.63;;;3.33;;
3949;SDS011;53057;50.988;6.314;2023-04-25T10:16:32;7.93;;;3.53;;
3949;SDS011;53057;50.988;6.314;2023-04-25T10:18:59;5.80;;;2.73;;
3949;SDS011;53057;50.988;6.314;2023-04-25T10:21:26;9.57;;;3.17;;
3949;SDS011;53057;50.988;6.314;2023-04-25T10:23:54;13.70;;;2.70;;
3949;SDS011;53057;50.988;6.314;2023-04-25T10:26:21;6.20;;;2.77;;
3949;SDS011;53057;50.988;6.314;2023-04-25T10:28:58;6.73;;;2.80;;
3949;SDS011;53057;50.988;6.314;2023-04-25T10:31:25;6.83;;;2.50;;
3949;SDS011;53057;50.988;6.314;2023-04-25T10:33:52;4.93;;;2.60;;
3949;SDS011;53057;50.988;6.314;2023-04-25T10:36:23;10.30;;;2.97;;
3949;SDS011;53057;50.988;6.314;2023-04-25T10:38:50;7.47;;;2.70;;
3949;SDS011;53057;50.988;6.314;2023-04-25T10:41:17;9.23;;;2.37;;
3949;SDS011;53057;50.988;6.314;2023-04-25T10:43:45;6.37;;;2.70;;
3949;SDS011;53057;50.988;6.314;2023-04-25T10:46:13;12.17;;;3.20;;
3949;SDS011;53057;50.988;6.314;2023-04-25T10:48:43;7.40;;;2.30;;
3949;SDS011;53057;50.988;6.314;2023-04-25T10:51:11;5.50;;;2.17;;
3949;SDS011;53057;50.988;6.314;2023-04-25T10:53:38;8.43;;;2.70;;
3949;SDS011;53057;50.988;6.314;2023-04-25T10:56:17;5.23;;;2.40;;
3949;SDS011;53057;50.988;6.314;2023-04-25T10:58:45;11.03;;;3.37;;
3949;SDS011;53057;50.988;6.314;2023-04-25T11:01:14;9.00;;;2.90;;
3949;SDS011;53057;50.988;6.314;2023-04-25T11:03:41;7.30;;;2.53;;
3949;SDS011;53057;50.988;6.314;2023-04-25T11:06:34;5.53;;;2.13;;
3949;SDS011;53057;50.988;6.314;2023-04-25T11:08:57;3.80;;;1.90;;
3949;SDS011;53057;50.988;6.314;2023-04-25T11:11:26;5.33;;;2.17;;
3949;SDS011;53057;50.988;6.314;2023-04-25T11:13:53;4.17;;;1.70;;
3949;SDS011;53057;50.988;6.314;2023-04-25T11:16:19;9.13;;;2.57;;
3949;SDS011;53057;50.988;6.314;2023-04-25T11:18:53;6.03;;;2.60;;
3949;SDS011;53057;50.988;6.314;2023-04-25T11:21:19;4.83;;;2.07;;
3949;SDS011;53057;50.988;6.314;2023-04-25T11:23:46;4.53;;;1.60;;
3949;SDS011;53057;50.988;6.314;2023-04-25T11:26:14;5.90;;;2.67;;
3949;SDS011;53057;50.988;6.314;2023-04-25T11:28:44;3.57;;;2.30;;
3949;SDS011;53057;50.988;6.314;2023-04-25T11:31:11;5.53;;;2.30;;
3949;SDS011;53057;50.988;6.314;2023-04-25T11:33:37;5.77;;;2.53;;
3949;SDS011;53057;50.988;6.314;2023-04-25T11:36:04;6.00;;;3.07;;
3949;SDS011;53057;50.988;6.314;2023-04-25T11:38:31;8.80;;;4.00;;
3949;SDS011;53057;50.988;6.314;2023-04-25T11:40:58;8.03;;;2.60;;
3949;SDS011;53057;50.988;6.314;2023-04-25T11:43:25;4.30;;;2.33;;
3949;SDS011;53057;50.988;6.314;2023-04-25T11:45:52;2.37;;;1.80;;
3949;SDS011;53057;50.988;6.314;2023-04-25T11:48:19;4.20;;;2.90;;
3949;SDS011;53057;50.988;6.314;2023-04-25T11:50:53;7.20;;;2.30;;
3949;SDS011;53057;50.988;6.314;2023-04-25T11:53:19;6.83;;;2.27;;
3949;SDS011;53057;50.988;6.314;2023-04-25T11:55:47;5.43;;;2.67;;
3949;SDS011;53057;50.988;6.314;2023-04-25T11:58:14;4.63;;;2.63;;
3949;SDS011;53057;50.988;6.314;2023-04-25T12:00:41;6.67;;;2.40;;
3949;SDS011;53057;50.988;6.314;2023-04-25T12:03:17;5.43;;;2.03;;
3949;SDS011;53057;50.988;6.314;2023-04-25T12:05:44;6.83;;;2.40;;
3949;SDS011;53057;50.988;6.314;2023-04-25T12:08:15;5.73;;;2.00;;
3949;SDS011;53057;50.988;6.314;2023-04-25T12:10:42;7.20;;;2.73;;
3949;SDS011;53057;50.988;6.314;2023-04-25T12:13:22;2.40;;;1.93;;
3949;SDS011;53057;50.988;6.314;2023-04-25T12:15:49;2.50;;;1.60;;
3949;SDS011;53057;50.988;6.314;2023-04-25T12:18:35;4.10;;;2.00;;
3949;SDS011;53057;50.988;6.314;2023-04-25T12:21:02;6.70;;;1.53;;
3949;SDS011;53057;50.988;6.314;2023-04-25T12:23:30;3.57;;;2.10;;
3949;SDS011;53057;50.988;6.314;2023-04-25T12:25:57;2.70;;;2.03;;
3949;SDS011;53057;50.988;6.314;2023-04-25T12:28:24;10.83;;;2.33;;
3949;SDS011;53057;50.988;6.314;2023-04-25T12:30:52;11.33;;;2.53;;
3949;SDS011;53057;50.988;6.314;2023-04-25T12:33:18;5.17;;;1.90;;
3949;SDS011;53057;50.988;6.314;2023-04-25T12:35:45;6.10;;;2.17;;
3949;SDS011;53057;50.988;6.314;2023-04-25T12:38:19;8.73;;;3.00;;
3949;SDS011;53057;50.988;6.314;2023-04-25T12:40:46;4.97;;;2.57;;
3949;SDS011;53057;50.988;6.314;2023-04-25T12:43:13;8.83;;;2.93;;
3949;SDS011;53057;50.988;6.314;2023-04-25T12:45:39;5.67;;;2.33;;
3949;SDS011;53057;50.988;6.314;2023-04-25T12:48:06;4.77;;;3.00;;
3949;SDS011;53057;50.988;6.314;2023-04-25T12:50:33;10.83;;;3.20;;
3949;SDS011;53057;50.988;6.314;2023-04-25T12:52:59;4.33;;;3.07;;
3949;SDS011;53057;50.988;6.314;2023-04-25T12:55:26;15.30;;;3.53;;
3949;SDS011;53057;50.988;6.314;2023-04-25T12:57:52;3.90;;;2.63;;
3949;SDS011;53057;50.988;6.314;2023-04-25T13:00:19;7.07;;;2.53;;
3949;SDS011;53057;50.988;6.314;2023-04-25T13:02:46;9.73;;;2.60;;
3949;SDS011;53057;50.988;6.314;2023-04-25T13:05:16;17.30;;;2.60;;
3949;SDS011;53057;50.988;6.314;2023-04-25T13:07:42;8.23;;;2.63;;
3949;SDS011;53057;50.988;6.314;2023-04-25T13:10:09;5.53;;;1.83;;
3949;SDS011;53057;50.988;6.314;2023-04-25T13:12:35;6.73;;;2.97;;
3949;SDS011;53057;50.988;6.314;2023-04-25T13:15:02;6.63;;;1.90;;
3949;SDS011;53057;50.988;6.314;2023-04-25T13:17:29;6.03;;;2.63;;
3949;SDS011;53057;50.988;6.314;2023-04-25T13:19:56;8.70;;;2.93;;
3949;SDS011;53057;50.988;6.314;2023-04-25T13:22:22;7.20;;;2.57;;
3949;SDS011;53057;50.988;6.314;2023-04-25T13:24:49;7.53;;;2.53;;
3949;SDS011;53057;50.988;6.314;2023-04-25T13:27:16;7.40;;;1.80;;
3949;SDS011;53057;50.988;6.314;2023-04-25T13:29:42;4.40;;;2.40;;
3949;SDS011;53057;50.988;6.314;2023-04-25T13:32:09;3.83;;;2.27;;
3949;SDS011;53057;50.988;6.314;2023-04-25T13:34:36;3.00;;;2.10;;
3949;SDS011;53057;50.988;6.314;2023-04-25T13:37:02;3.77;;;2.27;;
3949;SDS011;53057;50.988;6.314;2023-04-25T13:39:29;5.50;;;2.30;;
3949;SDS011;53057;50.988;6.314;2023-04-25T13:41:56;6.00;;;2.40;;
3949;SDS011;53057;50.988;6.314;2023-04-25T13:44:22;7.43;;;2.33;;
3949;SDS011;53057;50.988;6.314;2023-04-25T13:46:49;5.67;;;1.93;;
3949;SDS011;53057;50.988;6.314;2023-04-25T13:49:16;2.63;;;1.43;;
3949;SDS011;53057;50.988;6.314;2023-04-25T13:51:43;4.03;;;1.43;;
3949;SDS011;53057;50.988;6.314;2023-04-25T13:54:09;1.50;;;1.30;;
3949;SDS011;53057;50.988;6.314;2023-04-25T13:56:36;5.17;;;1.63;;
3949;SDS011;53057;50.988;6.314;2023-04-25T13:59:03;4.60;;;2.40;;
3949;SDS011;53057;50.988;6.314;2023-04-25T14:01:32;9.03;;;1.90;;
3949;SDS011;53057;50.988;6.314;2023-04-25T14:04:02;5.13;;;1.80;;
3949;SDS011;53057;50.988;6.314;2023-04-25T14:06:31;4.47;;;1.77;;
3949;SDS011;53057;50.988;6.314;2023-04-25T14:08:58;4.73;;;1.73;;
3949;SDS011;53057;50.988;6.314;2023-04-25T14:11:26;13.60;;;3.20;;
3949;SDS011;53057;50.988;6.314;2023-04-25T14:13:53;2.50;;;2.03;;
3949;SDS011;53057;50.988;6.314;2023-04-25T14:16:20;4.07;;;1.40;;
3949;SDS011;53057;50.988;6.314;2023-04-25T14:18:46;5.47;;;2.10;;
3949;SDS011;53057;50.988;6.314;2023-04-25T14:21:13;4.80;;;2.60;;
3949;SDS011;53057;50.988;6.314;2023-04-25T14:23:40;5.90;;;1.67;;
3949;SDS011;53057;50.988;6.314;2023-04-25T14:26:06;3.77;;;1.50;;
3949;SDS011;53057;50.988;6.314;2023-04-25T14:28:33;7.80;;;1.20;;
3949;SDS011;53057;50.988;6.314;2023-04-25T14:30:59;3.40;;;2.07;;
3949;SDS011;53057;50.988;6.314;2023-04-25T14:33:27;1.93;;;1.77;;
3949;SDS011;53057;50.988;6.314;2023-04-25T14:35:53;4.80;;;1.30;;
3949;SDS011;53057;50.988;6.314;2023-04-25T14:38:21;5.23;;;1.93;;
3949;SDS011;53057;50.988;6.314;2023-04-25T14:40:49;4.63;;;1.80;;
3949;SDS011;53057;50.988;6.314;2023-04-25T14:43:16;6.20;;;1.60;;
3949;SDS011;53057;50.988;6.314;2023-04-25T14:45:42;5.90;;;1.67;;
3949;SDS011;53057;50.988;6.314;2023-04-25T14:48:09;2.90;;;1.63;;
3949;SDS011;53057;50.988;6.314;2023-04-25T14:50:36;6.67;;;1.80;;
3949;SDS011;53057;50.988;6.314;2023-04-25T14:53:02;5.90;;;3.33;;
3949;SDS011;53057;50.988;6.314;2023-04-25T14:55:29;3.57;;;1.17;;
3949;SDS011;53057;50.988;6.314;2023-04-25T14:57:56;2.37;;;1.40;;
3949;SDS011;53057;50.988;6.314;2023-04-25T15:00:23;4.23;;;1.43;;
3949;SDS011;53057;50.988;6.314;2023-04-25T15:02:51;4.87;;;1.63;;
3949;SDS011;53057;50.988;6.314;2023-04-25T15:05:18;6.77;;;1.43;;